Terminal Aerodrome Forecast
Issued by NWS

Home | Current Version | Previous Version | Text Only | Print | Product List | Glossary On
Versions: 1 2 3 4 5 6 7 8 9 10 11 12 13 14 15 16 17 18 19 20 21 22 23 24 25 26 27 28 29
058
FTUS45 KPSR 010227 AAB
TAFPHX
TAF AMD
KPHX 010227Z 0102/0124 24005KT P6SM FEW120 SCT200
     FM010400 12010G20KT P6SM BKN120 BKN250
     FM010700 12008KT P6SM BKN120 BKN250
     FM012100 24006KT P6SM BKN120 BKN250=

USA.gov is the U.S. government's official web portal to all federal, state and local government web resources and services.